Time;durP1;ratioP1;P1;durP2;ratioP2;P2;SDS_P1;SDS_P2;PMS_P1;PMS_P2;Temp;Humidity;BMP_temperature;BMP_pressure;BME280_temperature;BME280_humidity;BME280_pressure;Samples;Min_cycle;Max_cycle;Signal;HPM_P1;HPM_P2
2022/09/19 00:01:18;;;;;;;7.07;2.20;;;19.50;50.40;;;;;;5015483;28;20026;-69
2022/09/19 00:03:46;;;;;;;8.23;2.30;;;19.50;50.60;;;;;;5014827;28;20030;-69
2022/09/19 00:06:15;;;;;;;6.25;1.90;;;19.50;50.40;;;;;;5015296;28;20410;-68
2022/09/19 00:08:43;;;;;;;7.18;1.95;;;19.40;50.40;;;;;;5015307;28;20101;-69
2022/09/19 00:11:10;;;;;;;8.20;2.30;;;19.40;50.40;;;;;;5015358;28;20041;-68
2022/09/19 00:13:45;;;;;;;4.35;1.60;;;19.40;50.60;;;;;;5015311;28;20037;-70
2022/09/19 00:16:12;;;;;;;5.43;1.85;;;19.40;50.60;;;;;;5015413;28;20026;-68
2022/09/19 00:18:38;;;;;;;4.80;1.75;;;19.30;50.80;;;;;;5015304;28;20032;-68
2022/09/19 00:21:04;;;;;;;3.30;1.75;;;19.30;50.70;;;;;;5015335;28;20029;-68
2022/09/19 00:26:19;;;;;;;4.32;1.70;;;19.20;50.30;;;;;;5015058;28;20076;-68
2022/09/19 00:28:45;;;;;;;5.05;1.67;;;19.10;50.30;;;;;;5015002;28;20018;-68
2022/09/19 00:31:17;;;;;;;4.18;1.67;;;19.10;50.80;;;;;;5014907;28;20070;-68
2022/09/19 00:33:44;;;;;;;4.95;1.95;;;19.00;50.90;;;;;;5014900;28;20212;-68
2022/09/19 00:36:11;;;;;;;6.35;1.83;;;19.00;51.00;;;;;;5014828;28;20037;-68
2022/09/19 00:38:36;;;;;;;5.43;1.60;;;19.00;51.10;;;;;;5014605;28;20025;-67
2022/09/19 00:41:03;;;;;;;6.50;2.35;;;19.00;51.20;;;;;;5014948;28;20123;-68
2022/09/19 00:43:46;;;;;;;4.25;2.40;;;19.00;51.30;;;;;;5014983;28;20458;-68
2022/09/19 00:46:12;;;;;;;6.45;1.70;;;19.00;51.50;;;;;;5014600;28;20567;-68
2022/09/19 00:48:41;;;;;;;5.28;1.67;;;19.00;51.40;;;;;;5015081;28;20058;-68
2022/09/19 00:51:12;;;;;;;5.97;1.85;;;18.90;51.30;;;;;;5014438;28;20034;-67
2022/09/19 00:53:39;;;;;;;4.78;1.90;;;18.90;51.80;;;;;;4997330;28;20026;-68
2022/09/19 00:56:05;;;;;;;4.00;1.70;;;18.90;51.90;;;;;;5014664;28;20033;-68
2022/09/19 00:58:35;;;;;;;3.63;1.35;;;18.80;51.80;;;;;;5014542;28;20021;-68
2022/09/19 01:01:01;;;;;;;3.55;1.60;;;18.70;51.80;;;;;;5014490;28;20091;-68
2022/09/19 01:03:28;;;;;;;4.95;1.52;;;18.60;51.90;;;;;;5014406;28;20084;-68
2022/09/19 01:06:03;;;;;;;4.95;1.42;;;18.60;52.00;;;;;;5014156;28;20058;-68
2022/09/19 01:09:12;;;;;;;3.63;1.60;;;18.60;52.00;;;;;;5014471;28;20031;-72
2022/09/19 01:12:02;;;;;;;3.42;1.77;;;18.50;51.80;;;;;;5014190;28;20198;-68
2022/09/19 01:14:46;;;;;;;2.75;1.30;;;18.60;52.20;;;;;;5012132;28;20022;-68
2022/09/19 01:17:46;;;;;;;4.38;1.55;;;18.50;51.60;;;;;;5013960;28;20483;-67
2022/09/19 01:20:36;;;;;;;3.42;1.45;;;18.50;51.50;;;;;;4973728;28;20041;-67
2022/09/19 01:23:15;;;;;;;5.07;1.58;;;18.50;51.40;;;;;;5014078;28;20030;-67
2022/09/19 01:25:56;;;;;;;4.45;1.42;;;18.50;51.80;;;;;;5013950;28;20034;-68
2022/09/19 01:28:30;;;;;;;5.32;1.38;;;18.50;51.70;;;;;;5013990;28;20092;-68
2022/09/19 01:31:17;;;;;;;3.80;1.50;;;18.40;52.00;;;;;;5013860;28;20131;-66
2022/09/19 01:34:11;;;;;;;3.30;1.50;;;18.40;52.40;;;;;;5013593;28;20026;-69
2022/09/19 01:36:46;;;;;;;4.18;1.52;;;18.30;51.40;;;;;;5013662;28;20355;-68
2022/09/19 01:39:17;;;;;;;3.10;1.50;;;18.30;52.00;;;;;;5013572;28;20021;-68
2022/09/19 01:41:53;;;;;;;4.72;1.92;;;18.30;52.20;;;;;;5013665;28;20026;-67
2022/09/19 01:44:22;;;;;;;6.43;1.90;;;18.20;52.10;;;;;;5013486;28;20029;-68
2022/09/19 01:46:55;;;;;;;3.42;1.45;;;18.20;52.10;;;;;;5013537;28;20030;-68
2022/09/19 01:49:31;;;;;;;3.85;1.73;;;18.20;52.00;;;;;;5013665;28;20375;-68
2022/09/19 01:52:22;;;;;;;4.85;2.25;;;18.20;51.80;;;;;;5013365;28;20026;-67
2022/09/19 01:55:01;;;;;;;2.40;1.20;;;18.20;51.60;;;;;;5013421;28;20033;-68
2022/09/19 01:57:41;;;;;;;2.67;1.30;;;18.20;51.50;;;;;;5013509;28;20037;-68
2022/09/19 02:00:16;;;;;;;4.38;1.50;;;18.20;51.60;;;;;;5012791;28;20541;-68
2022/09/19 02:03:10;;;;;;;5.10;1.40;;;18.10;51.40;;;;;;4993731;28;20029;-68
2022/09/19 02:05:35;;;;;;;;;;;18.00;51.40;;;;;;4993917;28;20038;-69
2022/09/19 02:08:05;;;;;;;4.45;1.15;;;18.00;51.20;;;;;;4993688;28;19913;-67
2022/09/19 02:10:57;;;;;;;3.10;1.42;;;18.00;51.20;;;;;;4993694;28;20065;-67
2022/09/19 02:13:25;;;;;;;3.33;1.10;;;17.90;51.00;;;;;;4986640;28;20034;-67
2022/09/19 02:16:00;;;;;;;2.63;1.10;;;17.90;51.00;;;;;;4993354;28;20553;-67
2022/09/19 02:18:29;;;;;;;3.67;1.20;;;17.90;51.10;;;;;;4993302;28;20077;-67
2022/09/19 02:21:03;;;;;;;2.40;1.15;;;17.80;51.10;;;;;;4993394;28;20077;-68
2022/09/19 02:23:33;;;;;;;2.90;1.30;;;17.80;50.90;;;;;;4993372;28;20031;-68
2022/09/19 02:26:02;;;;;;;8.63;1.20;;;17.90;50.90;;;;;;4993281;28;20114;-68
2022/09/19 02:28:38;;;;;;;2.22;1.10;;;17.90;51.00;;;;;;4993428;28;20062;-67
2022/09/19 02:31:05;;;;;;;2.05;1.00;;;17.90;50.10;;;;;;4993242;28;20070;-67
2022/09/19 02:33:35;;;;;;;4.13;1.25;;;17.90;50.40;;;;;;4993479;28;20476;-69
2022/09/19 02:36:20;;;;;;;3.15;1.10;;;17.90;50.40;;;;;;4993342;28;20029;-67
2022/09/19 02:38:52;;;;;;;2.65;1.00;;;17.80;50.00;;;;;;4993417;28;20032;-69
2022/09/19 02:41:25;;;;;;;1.75;1.15;;;17.80;50.20;;;;;;4993350;28;20109;-67
2022/09/19 02:44:19;;;;;;;2.38;1.10;;;17.80;50.40;;;;;;4993227;28;20072;-69
2022/09/19 02:46:57;;;;;;;3.63;0.95;;;17.80;49.90;;;;;;4993299;28;20030;-68
2022/09/19 02:49:43;;;;;;;3.30;1.10;;;17.80;49.60;;;;;;4993239;28;20498;-68
2022/09/19 02:52:32;;;;;;;2.33;1.25;;;17.70;49.50;;;;;;4993198;28;20034;-68
2022/09/19 02:55:13;;;;;;;2.08;1.00;;;17.70;50.40;;;;;;4985457;28;20045;-68
2022/09/19 02:57:43;;;;;;;2.58;1.10;;;17.70;50.30;;;;;;4993204;28;20045;-67
2022/09/19 03:00:16;;;;;;;2.40;1.00;;;17.70;50.30;;;;;;4992988;28;20049;-68
2022/09/19 03:02:47;;;;;;;5.30;1.27;;;17.70;50.10;;;;;;4993084;28;20505;-68
2022/09/19 03:05:19;;;;;;;2.08;0.90;;;17.70;50.20;;;;;;4992978;28;20117;-68
2022/09/19 03:08:08;;;;;;;2.17;0.93;;;17.70;50.30;;;;;;4993244;28;20057;-67
2022/09/19 03:10:37;;;;;;;2.25;1.10;;;17.70;50.50;;;;;;4993101;28;20040;-67
2022/09/19 03:13:08;;;;;;;3.40;1.50;;;17.60;50.60;;;;;;4993471;28;20022;-68
2022/09/19 03:15:40;;;;;;;4.13;1.20;;;17.60;50.60;;;;;;4993027;28;20121;-68
2022/09/19 03:18:09;;;;;;;5.47;1.20;;;17.60;49.40;;;;;;4992900;28;20034;-67
2022/09/19 03:20:40;;;;;;;1.90;1.10;;;17.60;50.60;;;;;;4975348;28;20558;-67
2022/09/19 03:23:08;;;;;;;3.50;1.35;;;17.60;50.80;;;;;;4992683;28;20031;-67
2022/09/19 03:25:34;;;;;;;3.13;0.93;;;17.60;49.40;;;;;;4992727;28;20026;-68
2022/09/19 03:28:00;;;;;;;5.15;1.15;;;17.60;50.20;;;;;;4992924;28;20065;-68
2022/09/19 03:30:26;;;;;;;3.75;1.13;;;17.60;50.40;;;;;;4961638;28;20096;-68
2022/09/19 03:32:51;;;;;;;2.28;0.95;;;17.60;50.40;;;;;;4987898;28;20109;-69
2022/09/19 03:35:17;;;;;;;1.73;1.00;;;17.50;50.40;;;;;;5010807;28;20078;-67
2022/09/19 03:37:43;;;;;;;1.98;0.90;;;17.50;50.60;;;;;;5012998;28;20018;-66
2022/09/19 03:40:10;;;;;;;6.43;1.50;;;17.60;50.60;;;;;;5016094;28;20128;-66
2022/09/19 03:42:37;;;;;;;3.55;1.30;;;17.50;50.10;;;;;;5016023;28;20100;-67
2022/09/19 03:45:06;;;;;;;10.25;2.75;;;17.50;50.30;;;;;;5015633;28;20568;-67
2022/09/19 03:47:32;;;;;;;11.63;2.58;;;17.50;50.30;;;;;;5014403;28;20123;-68
2022/09/19 03:49:58;;;;;;;6.47;2.78;;;17.60;50.50;;;;;;5015672;28;20026;-68
2022/09/19 03:52:28;;;;;;;4.25;1.30;;;17.60;50.60;;;;;;5015734;28;20038;-67
2022/09/19 03:54:56;;;;;;;2.55;1.35;;;17.60;50.50;;;;;;5015562;28;20021;-67
2022/09/19 03:57:21;;;;;;;3.80;1.35;;;17.60;50.60;;;;;;5015745;28;20384;-67
2022/09/19 03:59:48;;;;;;;4.97;1.40;;;17.60;50.50;;;;;;5015693;28;20057;-67
2022/09/19 04:02:13;;;;;;;4.38;1.33;;;17.60;50.80;;;;;;5015456;28;20029;-68
2022/09/19 04:04:39;;;;;;;5.13;1.33;;;17.60;50.90;;;;;;5015334;28;20037;-69
2022/09/19 04:07:05;;;;;;;3.20;1.10;;;17.50;50.80;;;;;;5015459;28;20083;-68
2022/09/19 04:09:32;;;;;;;2.55;1.13;;;17.50;50.90;;;;;;5015383;28;20033;-68
2022/09/19 04:11:59;;;;;;;6.93;1.20;;;17.40;51.00;;;;;;5015305;28;20460;-69
2022/09/19 04:14:25;;;;;;;5.68;1.50;;;17.40;51.10;;;;;;5015239;28;20061;-67
2022/09/19 04:16:51;;;;;;;4.53;1.10;;;17.40;51.00;;;;;;5015240;28;20092;-67
2022/09/19 04:19:17;;;;;;;3.92;1.13;;;17.40;51.00;;;;;;5015167;28;20522;-66
2022/09/19 04:21:42;;;;;;;6.15;1.40;;;17.40;51.00;;;;;;5015309;28;20195;-66
2022/09/19 04:24:09;;;;;;;4.47;1.45;;;17.40;51.10;;;;;;5015159;28;20156;-71
2022/09/19 04:26:35;;;;;;;3.95;1.25;;;17.30;51.20;;;;;;5015205;28;20033;-69
2022/09/19 04:29:03;;;;;;;6.45;1.40;;;17.40;51.10;;;;;;5015030;28;20135;-67
2022/09/19 04:31:39;;;;;;;3.78;1.02;;;17.40;51.30;;;;;;5014941;28;20073;-68
2022/09/19 04:34:06;;;;;;;6.13;1.60;;;17.30;51.10;;;;;;5014968;28;20112;-67
2022/09/19 04:36:33;;;;;;;4.75;1.42;;;17.30;51.40;;;;;;5014910;28;20104;-67
2022/09/19 04:39:02;;;;;;;5.00;1.50;;;17.30;51.40;;;;;;5015016;28;20022;-69
2022/09/19 04:41:33;;;;;;;6.30;1.70;;;17.30;51.50;;;;;;5014764;28;20430;-69
2022/09/19 04:43:59;;;;;;;5.68;1.40;;;17.30;51.40;;;;;;5014600;28;20100;-68
2022/09/19 04:46:25;;;;;;;4.85;1.55;;;17.30;51.50;;;;;;5014597;28;20037;-67
2022/09/19 04:48:52;;;;;;;8.20;1.48;;;17.30;51.90;;;;;;5014431;28;20483;-69
2022/09/19 04:51:18;;;;;;;5.03;1.50;;;17.30;51.40;;;;;;5014278;28;20491;-69
2022/09/19 04:53:44;;;;;;;5.50;1.58;;;17.30;52.20;;;;;;5014187;28;20053;-69
2022/09/19 04:56:11;;;;;;;4.38;1.70;;;17.40;52.10;;;;;;5014451;28;20077;-68
2022/09/19 04:58:40;;;;;;;4.75;1.60;;;17.40;51.40;;;;;;5014236;28;20018;-69
2022/09/19 05:01:07;;;;;;;9.80;1.38;;;17.40;51.40;;;;;;4997354;28;20038;-71
2022/09/19 05:03:33;;;;;;;3.50;1.30;;;17.40;51.20;;;;;;5014763;28;20382;-72
2022/09/19 05:06:00;;;;;;;8.63;1.60;;;17.40;51.50;;;;;;5014384;28;20054;-69
2022/09/19 05:08:28;;;;;;;5.40;1.60;;;17.40;51.50;;;;;;5015007;28;20029;-71
2022/09/19 05:11:00;;;;;;;6.75;1.30;;;17.40;51.70;;;;;;5014441;28;20387;-75
2022/09/19 05:13:28;;;;;;;4.22;1.67;;;17.40;51.70;;;;;;5016054;28;20026;-70
2022/09/19 05:15:58;;;;;;;4.00;1.40;;;17.40;51.80;;;;;;5015417;28;20030;-74
2022/09/19 05:18:24;;;;;;;9.80;1.70;;;17.40;51.10;;;;;;5016465;28;20093;-67
2022/09/19 05:20:52;;;;;;;4.70;1.70;;;17.40;51.90;;;;;;5013869;28;20132;-70
2022/09/19 05:23:18;;;;;;;4.50;1.65;;;17.40;52.10;;;;;;5013961;28;20038;-71
2022/09/19 05:25:43;;;;;;;5.60;1.73;;;17.40;51.90;;;;;;5013811;28;20364;-73
2022/09/19 05:28:09;;;;;;;4.32;1.45;;;17.40;52.00;;;;;;5013737;28;20029;-67
2022/09/19 05:30:45;;;;;;;5.05;1.70;;;17.40;51.80;;;;;;5002604;28;20119;-71
2022/09/19 05:33:11;;;;;;;4.90;1.90;;;17.40;52.20;;;;;;5008301;28;20180;-68
2022/09/19 05:35:37;;;;;;;6.15;1.73;;;17.40;51.80;;;;;;5003756;28;20509;-69
2022/09/19 05:38:03;;;;;;;4.72;1.50;;;17.40;51.80;;;;;;5002762;28;20026;-69
2022/09/19 05:40:30;;;;;;;7.25;1.42;;;17.40;51.50;;;;;;5001698;28;20022;-69
2022/09/19 05:43:00;;;;;;;5.47;1.70;;;17.40;51.60;;;;;;4994177;28;20488;-68
2022/09/19 05:45:26;;;;;;;7.90;1.83;;;17.30;51.80;;;;;;4999789;28;20512;-68
2022/09/19 05:47:58;;;;;;;6.43;1.50;;;17.40;52.30;;;;;;5000556;28;20499;-67
2022/09/19 05:50:24;;;;;;;6.00;1.98;;;17.50;51.90;;;;;;4996103;28;20030;-69
2022/09/19 05:55:37;;;;;;;6.95;1.77;;;17.70;51.60;;;;;;5013204;28;20548;-68
2022/09/19 05:58:06;;;;;;;7.80;1.58;;;17.80;51.90;;;;;;5013382;28;20037;-67
2022/09/19 06:00:32;;;;;;;6.80;2.05;;;17.90;51.70;;;;;;5012828;28;20026;-68
2022/09/19 06:03:02;;;;;;;7.50;1.83;;;18.00;51.40;;;;;;5013051;28;20026;-68
2022/09/19 06:05:33;;;;;;;13.98;2.55;;;18.20;51.40;;;;;;5012804;28;20119;-70
2022/09/19 06:07:59;;;;;;;6.32;1.88;;;18.40;51.60;;;;;;5013177;28;20029;-69
2022/09/19 06:10:27;;;;;;;6.90;1.75;;;18.50;51.40;;;;;;4995702;28;20053;-66
2022/09/19 06:12:53;;;;;;;6.50;1.67;;;18.70;51.20;;;;;;5012850;28;20014;-67
2022/09/19 06:15:19;;;;;;;7.38;1.70;;;18.90;51.10;;;;;;5012794;28;20030;-68
2022/09/19 06:17:48;;;;;;;7.45;1.40;;;19.00;50.80;;;;;;5013139;28;20026;-68
2022/09/19 06:20:14;;;;;;;6.78;2.20;;;19.10;50.40;;;;;;5012759;28;20053;-70
2022/09/19 06:22:41;;;;;;;4.28;1.58;;;19.20;50.30;;;;;;5013381;28;20045;-69
2022/09/19 06:25:08;;;;;;;8.00;1.90;;;19.30;50.40;;;;;;5012937;28;20053;-68
2022/09/19 06:27:35;;;;;;;6.10;1.80;;;19.50;50.10;;;;;;5012983;28;20088;-68
2022/09/19 06:30:02;;;;;;;4.10;1.60;;;19.70;50.00;;;;;;5012522;28;20026;-69
2022/09/19 06:32:28;;;;;;;9.70;1.95;;;19.80;49.50;;;;;;5012718;28;20558;-69
2022/09/19 06:34:54;;;;;;;6.13;2.35;;;19.90;49.40;;;;;;5012804;28;20076;-67
2022/09/19 06:37:20;;;;;;;6.88;1.90;;;20.10;49.50;;;;;;5012825;28;20490;-73
2022/09/19 06:39:46;;;;;;;11.55;2.38;;;20.10;49.10;;;;;;5012205;28;20021;-72
2022/09/19 06:42:12;;;;;;;9.98;2.42;;;20.30;49.30;;;;;;5012579;28;20022;-72
2022/09/19 06:44:38;;;;;;;12.40;2.25;;;20.40;49.10;;;;;;5012641;28;20379;-69
2022/09/19 06:47:06;;;;;;;8.95;2.30;;;20.50;49.10;;;;;;4994824;28;20030;-69
2022/09/19 06:49:32;;;;;;;11.52;2.35;;;20.60;48.70;;;;;;5012274;28;20041;-73
2022/09/19 06:51:57;;;;;;;9.75;2.67;;;20.80;48.90;;;;;;5012351;28;20044;-73
2022/09/19 06:54:23;;;;;;;13.95;2.50;;;20.90;48.40;;;;;;5012432;28;20021;-72
2022/09/19 06:56:51;;;;;;;9.90;2.50;;;21.00;48.50;;;;;;5012311;28;20368;-72
2022/09/19 06:59:17;;;;;;;14.10;2.45;;;21.10;48.10;;;;;;5012428;28;20113;-72
2022/09/19 07:01:45;;;;;;;8.75;2.20;;;21.30;48.10;;;;;;5012389;28;20057;-69
2022/09/19 07:04:11;;;;;;;9.60;2.33;;;21.40;47.40;;;;;;4994940;28;20037;-72
2022/09/19 07:06:37;;;;;;;8.23;1.80;;;21.40;47.50;;;;;;5012753;28;20096;-72
2022/09/19 07:09:06;;;;;;;6.38;1.90;;;21.60;47.30;;;;;;4995907;28;20026;-68
2022/09/19 07:11:32;;;;;;;10.05;1.88;;;21.80;47.00;;;;;;4995688;28;20042;-68
2022/09/19 07:13:58;;;;;;;8.85;2.15;;;21.80;46.60;;;;;;4997384;28;20133;-67
2022/09/19 07:16:24;;;;;;;11.63;2.13;;;21.90;46.60;;;;;;5016066;28;20105;-69
2022/09/19 07:18:51;;;;;;;7.95;2.63;;;22.00;46.70;;;;;;5016013;28;20022;-67
2022/09/19 07:21:17;;;;;;;10.48;2.60;;;22.10;45.40;;;;;;4998575;28;20391;-69
2022/09/19 07:23:42;;;;;;;12.63;2.13;;;22.20;46.20;;;;;;5016133;28;20026;-68
2022/09/19 07:26:11;;;;;;;15.23;2.22;;;22.30;46.00;;;;;;5016405;28;20038;-70
2022/09/19 07:28:37;;;;;;;9.05;2.38;;;22.40;45.60;;;;;;5016353;28;20021;-70
2022/09/19 07:31:03;;;;;;;6.25;2.55;;;22.60;45.40;;;;;;5015803;28;20383;-70
2022/09/19 07:33:28;;;;;;;5.18;1.80;;;22.70;44.80;;;;;;5016100;28;20442;-72
2022/09/19 07:35:55;;;;;;;10.98;2.45;;;22.70;44.80;;;;;;5016115;28;20030;-69
2022/09/19 07:38:23;;;;;;;11.35;2.78;;;22.80;44.90;;;;;;5015955;28;20060;-72
2022/09/19 07:40:50;;;;;;;7.63;2.17;;;22.90;44.60;;;;;;5015841;28;20034;-69
2022/09/19 07:43:16;;;;;;;15.35;2.45;;;22.90;44.40;;;;;;5015949;28;20053;-70
2022/09/19 07:45:52;;;;;;;5.72;2.20;;;23.00;44.40;;;;;;5015543;28;20026;-70
2022/09/19 07:48:19;;;;;;;9.30;2.13;;;23.10;44.50;;;;;;5015762;28;20026;-73
2022/09/19 07:50:47;;;;;;;7.07;2.20;;;23.20;44.20;;;;;;5015522;28;20381;-71
2022/09/19 07:53:16;;;;;;;6.50;1.70;;;23.20;43.90;;;;;;5015690;28;20110;-71
2022/09/19 07:55:42;;;;;;;7.18;1.92;;;23.30;44.00;;;;;;5015480;28;20030;-70
2022/09/19 07:58:10;;;;;;;6.32;1.70;;;23.30;43.80;;;;;;5015451;28;20030;-72
2022/09/19 08:00:40;;;;;;;7.82;2.10;;;23.40;43.90;;;;;;5015478;28;20033;-68
2022/09/19 08:03:11;;;;;;;11.35;2.75;;;23.50;43.60;;;;;;5015573;28;20105;-72
2022/09/19 08:05:39;;;;;;;10.40;1.95;;;23.70;43.50;;;;;;5015393;28;20053;-71
2022/09/19 08:08:06;;;;;;;11.48;2.47;;;23.90;43.20;;;;;;5015808;28;20029;-70
2022/09/19 08:10:32;;;;;;;6.88;2.00;;;24.00;42.90;;;;;;5018254;28;20040;-73
2022/09/19 08:13:00;;;;;;;6.07;1.70;;;24.20;42.30;;;;;;5003098;28;20112;-70
2022/09/19 08:15:25;;;;;;;5.88;1.60;;;24.30;42.10;;;;;;5019345;28;20082;-71
2022/09/19 08:18:01;;;;;;;4.32;1.50;;;24.30;41.80;;;;;;5016546;28;20179;-72
2022/09/19 08:20:29;;;;;;;4.45;1.65;;;24.20;40.50;;;;;;5015373;28;20026;-70
2022/09/19 08:22:59;;;;;;;9.05;1.23;;;24.20;42.00;;;;;;5015390;28;20041;-73
2022/09/19 08:25:27;;;;;;;5.15;1.48;;;24.20;42.30;;;;;;5014963;28;20018;-74
2022/09/19 08:27:53;;;;;;;8.43;2.03;;;24.10;42.20;;;;;;4997297;28;20395;-71
2022/09/19 08:30:19;;;;;;;11.52;1.70;;;24.10;42.60;;;;;;5014861;28;20471;-73
2022/09/19 08:32:47;;;;;;;6.15;1.55;;;24.10;42.40;;;;;;5014853;28;20037;-71
2022/09/19 08:35:16;;;;;;;4.40;1.48;;;24.10;43.30;;;;;;5014714;28;20072;-73
2022/09/19 08:37:43;;;;;;;6.85;1.52;;;24.20;43.40;;;;;;5014882;28;20096;-72
2022/09/19 08:40:29;;;;;;;4.60;1.25;;;24.30;43.90;;;;;;5014951;28;20026;-71
2022/09/19 08:43:46;;;;;;;8.05;1.80;;;24.40;44.40;;;;;;5014679;28;20026;-69
2022/09/19 08:46:28;;;;;;;5.28;1.45;;;24.50;43.00;;;;;;4981240;28;20094;-71
2022/09/19 08:49:03;;;;;;;10.48;1.67;;;24.60;43.10;;;;;;5014295;28;20105;-70
2022/09/19 08:52:13;;;;;;;8.80;1.60;;;24.70;43.30;;;;;;5014505;28;20034;-70
2022/09/19 08:54:46;;;;;;;12.85;1.75;;;24.90;43.50;;;;;;4934866;29;20031;-70
2022/09/19 08:57:28;;;;;;;8.30;1.80;;;25.00;44.80;;;;;;4934789;29;20075;-70
2022/09/19 09:00:00;;;;;;;11.00;1.88;;;25.00;43.10;;;;;;4987902;28;20037;-68
2022/09/19 09:02:49;;;;;;;6.22;1.70;;;25.00;44.90;;;;;;4997716;28;20411;-72
2022/09/19 09:05:20;;;;;;;5.63;1.52;;;25.10;43.20;;;;;;5014388;28;20535;-72
2022/09/19 09:08:09;;;;;;;5.80;1.40;;;25.10;45.70;;;;;;5014492;28;20030;-72
2022/09/19 09:10:45;;;;;;;7.95;1.58;;;25.20;44.90;;;;;;5014315;28;20096;-71
2022/09/19 09:13:38;;;;;;;8.02;1.98;;;25.30;45.00;;;;;;5014093;28;20053;-73
2022/09/19 09:16:15;;;;;;;8.65;1.83;;;25.30;43.60;;;;;;5014011;28;20129;-72
2022/09/19 09:18:47;;;;;;;8.02;2.10;;;25.30;43.90;;;;;;5014059;28;20030;-73
2022/09/19 09:21:33;;;;;;;7.03;1.80;;;25.20;44.20;;;;;;5013979;28;20026;-73
2022/09/19 09:24:09;;;;;;;7.68;1.90;;;25.10;44.60;;;;;;5013745;28;20041;-74
2022/09/19 09:26:40;;;;;;;9.00;1.92;;;25.10;46.80;;;;;;5013915;28;20041;-71
2022/09/19 09:29:16;;;;;;;9.90;1.67;;;25.00;47.00;;;;;;5013681;28;20026;-71
2022/09/19 09:31:50;;;;;;;7.30;1.38;;;25.00;47.50;;;;;;5013606;28;20343;-73
2022/09/19 09:34:22;;;;;;;5.95;1.10;;;25.00;47.90;;;;;;5013471;28;20072;-73
2022/09/19 09:36:56;;;;;;;6.90;1.40;;;24.90;48.10;;;;;;5013102;28;20026;-72
2022/09/19 09:39:31;;;;;;;7.15;1.35;;;24.80;48.20;;;;;;5014099;28;20498;-75
2022/09/19 09:42:01;;;;;;;4.63;1.60;;;24.80;48.70;;;;;;5013540;28;20017;-70
2022/09/19 09:44:51;;;;;;;8.90;1.60;;;24.80;48.80;;;;;;5012878;28;20132;-70
2022/09/19 09:47:39;;;;;;;5.38;1.95;;;24.70;48.30;;;;;;5013036;28;20395;-69
2022/09/19 09:50:23;;;;;;;5.30;1.42;;;24.80;48.70;;;;;;5013114;28;20049;-67
2022/09/19 09:53:04;;;;;;;7.65;1.38;;;24.80;50.30;;;;;;5013162;28;20112;-70
2022/09/19 10:03:34;;;;;;;8.18;1.50;;;24.90;50.30;;;;;;5013239;28;20048;-70
2022/09/19 10:05:33;;;;;;;9.63;2.28;;;25.30;49.90;;;;;;5012784;28;20514;-69
2022/09/19 10:08:22;;;;;;;9.63;1.90;;;25.50;50.60;;;;;;5012972;28;20436;-71
2022/09/19 10:10:53;;;;;;;7.97;3.03;;;25.70;50.50;;;;;;5012832;28;20379;-68
2022/09/19 10:13:27;;;;;;;4.78;1.60;;;25.80;50.30;;;;;;5012927;28;20041;-67
2022/09/19 10:16:02;;;;;;;4.82;1.70;;;26.00;49.40;;;;;;5012716;28;20367;-68
2022/09/19 10:18:43;;;;;;;7.95;1.80;;;26.10;50.10;;;;;;4995354;28;20088;-68
2022/09/19 10:21:09;;;;;;;11.20;2.33;;;26.20;49.90;;;;;;4995284;28;20029;-67
2022/09/19 10:23:35;;;;;;;7.38;1.98;;;26.40;49.60;;;;;;4995331;28;20072;-71
2022/09/19 10:26:14;;;;;;;6.22;1.95;;;26.60;49.20;;;;;;5012606;28;20428;-68
2022/09/19 10:28:53;;;;;;;10.95;2.72;;;26.70;47.60;;;;;;5012829;28;20135;-67
2022/09/19 10:31:34;;;;;;;9.88;2.03;;;26.90;49.00;;;;;;5012525;28;20044;-68
2022/09/19 10:34:14;;;;;;;9.73;2.00;;;27.00;48.80;;;;;;5012756;28;20359;-70
2022/09/19 10:36:47;;;;;;;7.20;2.22;;;27.00;48.70;;;;;;5012755;28;20041;-68
2022/09/19 10:39:14;;;;;;;12.07;3.22;;;27.10;48.40;;;;;;5012837;28;20026;-68
2022/09/19 10:41:42;;;;;;;8.50;2.20;;;27.20;48.30;;;;;;4995066;28;20030;-67
2022/09/19 10:44:28;;;;;;;6.15;1.80;;;27.20;48.40;;;;;;5012371;28;20026;-68
2022/09/19 10:47:03;;;;;;;6.90;2.80;;;27.10;48.00;;;;;;5013697;28;20033;-67
2022/09/19 10:49:45;;;;;;;6.80;2.45;;;27.10;48.30;;;;;;5017251;28;20034;-71
2022/09/19 10:52:20;;;;;;;9.30;2.13;;;27.10;48.50;;;;;;5017889;28;20040;-69
2022/09/19 10:54:47;;;;;;;9.43;2.45;;;26.90;48.30;;;;;;5019269;28;20029;-71
2022/09/19 10:57:41;;;;;;;9.40;2.70;;;26.80;48.50;;;;;;5016850;28;20041;-71
2022/09/19 11:00:23;;;;;;;7.20;2.45;;;26.60;47.40;;;;;;5016998;28;20364;-67
2022/09/19 11:03:23;;;;;;;7.68;1.92;;;26.60;49.00;;;;;;5016535;28;20030;-71
2022/09/19 11:06:05;;;;;;;9.32;2.28;;;26.60;47.80;;;;;;5016057;28;20127;-69
2022/09/19 11:08:44;;;;;;;7.72;2.22;;;26.50;47.70;;;;;;5016444;28;20034;-70
2022/09/19 11:11:37;;;;;;;8.43;1.95;;;26.60;49.40;;;;;;4999337;28;20041;-70
2022/09/19 11:14:32;;;;;;;9.70;2.50;;;26.60;48.30;;;;;;5016035;28;20030;-69
2022/09/19 11:17:37;;;;;;;5.90;1.85;;;26.60;47.90;;;;;;5016142;28;20499;-73
2022/09/19 11:20:40;;;;;;;7.20;2.20;;;26.70;47.90;;;;;;5016285;28;20104;-72
2022/09/19 11:23:13;;;;;;;7.85;1.55;;;26.80;48.20;;;;;;5016455;28;20034;-70
2022/09/19 11:26:10;;;;;;;7.97;2.63;;;26.90;48.10;;;;;;5016122;28;20038;-70
2022/09/19 11:29:20;;;;;;;8.30;2.20;;;27.10;47.70;;;;;;5016319;28;20033;-72
2022/09/19 11:32:03;;;;;;;8.32;2.33;;;27.30;47.70;;;;;;4998350;28;20033;-73
2022/09/19 11:34:58;;;;;;;8.40;2.30;;;27.60;48.40;;;;;;4998361;28;20033;-75
2022/09/19 11:37:45;;;;;;;8.88;1.90;;;27.80;46.70;;;;;;5015842;28;20448;-73
2022/09/19 11:40:48;;;;;;;5.75;1.70;;;27.90;46.30;;;;;;5015914;28;20041;-74
2022/09/19 11:43:37;;;;;;;7.22;2.38;;;27.90;46.30;;;;;;5016007;28;20025;-77
2022/09/19 11:46:27;;;;;;;13.57;2.47;;;27.90;46.50;;;;;;5015882;28;20037;-73
2022/09/19 11:49:19;;;;;;;13.02;2.50;;;27.90;46.50;;;;;;5015676;28;20029;-74
2022/09/19 11:51:49;;;;;;;7.72;2.35;;;27.90;46.70;;;;;;5015436;28;20049;-75
2022/09/19 11:54:33;;;;;;;16.13;1.98;;;27.90;48.10;;;;;;5015683;28;20029;-76
2022/09/19 11:57:37;;;;;;;10.55;2.60;;;28.00;48.90;;;;;;5015543;28;20073;-73
2022/09/19 12:00:09;;;;;;;6.13;2.20;;;28.10;46.50;;;;;;5015085;28;20022;-74
2022/09/19 12:03:02;;;;;;;8.60;2.38;;;28.10;48.00;;;;;;4997843;28;20038;-74
2022/09/19 12:05:53;;;;;;;8.25;2.00;;;28.30;46.30;;;;;;5015260;28;20092;-74
2022/09/19 12:08:34;;;;;;;6.15;1.92;;;28.30;46.30;;;;;;5015246;28;20037;-72
2022/09/19 12:11:20;;;;;;;6.63;1.92;;;28.40;46.00;;;;;;5014973;28;20117;-70
2022/09/19 12:14:05;;;;;;;6.30;1.60;;;28.50;46.00;;;;;;4997314;28;20083;-69
2022/09/19 12:16:53;;;;;;;8.07;1.90;;;28.70;46.10;;;;;;5014920;28;20026;-71
2022/09/19 12:19:24;;;;;;;6.25;1.75;;;28.80;45.80;;;;;;5015128;28;20495;-71
2022/09/19 12:22:11;;;;;;;6.85;2.20;;;28.90;47.30;;;;;;5014847;28;20161;-67
2022/09/19 12:24:54;;;;;;;12.30;1.80;;;28.90;46.90;;;;;;5014809;28;20029;-69
2022/09/19 12:27:44;;;;;;;5.50;1.75;;;28.90;46.60;;;;;;5015091;28;20056;-73
2022/09/19 12:30:22;;;;;;;5.65;1.90;;;28.80;45.20;;;;;;5014540;28;20480;-66
2022/09/19 12:33:06;;;;;;;4.47;1.85;;;28.80;46.80;;;;;;5014551;28;20041;-69
2022/09/19 12:36:05;;;;;;;6.45;2.03;;;28.90;45.40;;;;;;5014644;28;20026;-70
2022/09/19 12:38:56;;;;;;;5.40;1.90;;;28.80;45.10;;;;;;5014451;28;20360;-69
2022/09/19 12:41:47;;;;;;;6.53;1.77;;;28.90;44.50;;;;;;5003239;28;20101;-68
2022/09/19 12:44:39;;;;;;;8.05;1.90;;;28.90;44.70;;;;;;5014712;28;20022;-68
2022/09/19 12:47:17;;;;;;;5.72;1.45;;;28.80;44.50;;;;;;5014825;28;20495;-70
2022/09/19 12:49:57;;;;;;;8.88;2.00;;;28.80;45.00;;;;;;5014622;28;20022;-68
2022/09/19 12:52:32;;;;;;;7.25;2.40;;;28.70;45.00;;;;;;5014222;28;20080;-71
2022/09/19 12:55:08;;;;;;;9.73;2.30;;;28.70;46.70;;;;;;5014141;28;20044;-71
2022/09/19 12:57:56;;;;;;;4.30;1.55;;;28.70;45.30;;;;;;5014163;28;20560;-70
2022/09/19 13:00:22;;;;;;;5.38;1.63;;;28.70;45.10;;;;;;5014157;28;20092;-69
2022/09/19 13:02:56;;;;;;;6.00;1.83;;;28.60;46.80;;;;;;5014259;28;20055;-71
2022/09/19 13:05:27;;;;;;;5.50;1.30;;;28.40;45.80;;;;;;4996276;28;20141;-69
2022/09/19 13:08:02;;;;;;;4.32;1.60;;;28.30;47.50;;;;;;5014210;28;20026;-67
2022/09/19 13:10:39;;;;;;;5.93;1.63;;;28.20;46.50;;;;;;5013310;28;20124;-72
2022/09/19 13:13:19;;;;;;;6.60;1.40;;;28.10;48.40;;;;;;5014448;28;20057;-74
2022/09/19 13:15:54;;;;;;;4.78;1.50;;;28.10;47.00;;;;;;5014020;28;20049;-74
2022/09/19 13:23:59;;;;;;;7.50;1.42;;;27.90;48.60;;;;;;5014733;28;20412;-71
2022/09/19 13:26:35;;;;;;;5.25;1.40;;;27.90;48.10;;;;;;5014836;28;20026;-76
2022/09/19 13:29:04;;;;;;;13.55;1.77;;;27.90;48.20;;;;;;5020971;28;20069;-69
2022/09/19 13:31:52;;;;;;;6.72;1.20;;;27.90;48.20;;;;;;5021329;28;20436;-68
2022/09/19 13:34:39;;;;;;;7.00;1.92;;;28.10;47.00;;;;;;5014521;28;20060;-69
2022/09/19 13:37:27;;;;;;;6.43;1.40;;;28.40;47.10;;;;;;5013669;28;20040;-69
2022/09/19 13:40:30;;;;;;;6.85;1.52;;;28.50;47.00;;;;;;5013338;28;20081;-71